Time;durP1;ratioP1;P1;durP2;ratioP2;P2;SDS_P1;SDS_P2;PMS_P1;PMS_P2;Temp;Humidity;BMP_temperature;BMP_pressure;BME280_temperature;BME280_humidity;BME280_pressure;Samples;Min_cycle;Max_cycle;Signal;HPM_P1;HPM_P2
2023/03/16 00:00:45;;;;;;;;;;;7.40;72.80;;;;;;5020875;28;87344;-37
2023/03/16 00:03:10;;;;;;;;;;;7.50;72.90;;;;;;5004257;28;89183;-37
2023/03/16 00:05:36;;;;;;;;;;;7.50;72.90;;;;;;5004581;28;87174;-37
2023/03/16 00:08:02;;;;;;;;;;;7.50;72.80;;;;;;5004013;28;88662;-37
2023/03/16 00:10:27;;;;;;;;;;;7.40;72.80;;;;;;5004170;28;89144;-38
2023/03/16 00:12:53;;;;;;;;;;;7.40;72.80;;;;;;5007092;28;87682;-37
2023/03/16 00:15:19;;;;;;;;;;;7.40;72.90;;;;;;5003626;28;89281;-38
2023/03/16 00:17:47;;;;;;;;;;;7.40;72.90;;;;;;5015992;28;87266;-38
2023/03/16 00:20:17;;;;;;;;;;;7.40;72.70;;;;;;5021031;28;88900;-37
2023/03/16 00:22:43;;;;;;;;;;;7.40;72.90;;;;;;5019753;28;89042;-37
2023/03/16 00:25:09;;;;;;;;;;;7.40;72.70;;;;;;5020311;28;86490;-37
2023/03/16 00:27:35;;;;;;;;;;;7.30;72.70;;;;;;5011758;28;88336;-37
2023/03/16 00:30:02;;;;;;;;;;;7.40;72.50;;;;;;5003933;28;89667;-38
2023/03/16 00:32:28;;;;;;;;;;;7.30;72.60;;;;;;5003556;28;88074;-38
2023/03/16 00:34:54;;;;;;;;;;;7.30;72.60;;;;;;5006695;28;89689;-37
2023/03/16 00:37:22;;;;;;;;;;;7.30;72.40;;;;;;5002808;28;87142;-37
2023/03/16 00:39:48;;;;;;;;;;;7.30;72.50;;;;;;5018565;28;89373;-37
2023/03/16 00:42:14;;;;;;;;;;;7.30;72.50;;;;;;5003522;28;89451;-37
2023/03/16 00:44:43;;;;;;;;;;;7.30;72.40;;;;;;5019541;28;87242;-37
2023/03/16 00:47:13;;;;;;;;;;;7.30;72.40;;;;;;5002396;28;88773;-37
2023/03/16 00:49:38;;;;;;;;;;;7.30;72.20;;;;;;5020130;28;88299;-37
2023/03/16 00:52:05;;;;;;;;;;;7.30;72.40;;;;;;5020217;28;87144;-37
2023/03/16 00:54:31;;;;;;;;;;;7.30;72.50;;;;;;5021283;28;89028;-37
2023/03/16 00:57:00;;;;;;;;;;;7.30;72.50;;;;;;5022990;28;90181;-37
2023/03/16 00:59:26;;;;;;;;;;;7.20;72.40;;;;;;5017331;28;88435;-37
2023/03/16 01:01:52;;;;;;;;;;;7.30;72.30;;;;;;5021099;28;89528;-38
2023/03/16 01:04:18;;;;;;;;;;;7.20;72.40;;;;;;5018892;28;87266;-38
2023/03/16 01:06:44;;;;;;;;;;;7.20;72.30;;;;;;5019978;28;87417;-37
2023/03/16 01:09:10;;;;;;;;;;;7.20;72.90;;;;;;5020082;28;89349;-38
2023/03/16 01:11:35;;;;;;;;;;;7.20;72.50;;;;;;5014983;28;87851;-37
2023/03/16 01:14:01;;;;;;;;;;;7.20;72.50;;;;;;5006366;28;88539;-36
2023/03/16 01:16:26;;;;;;;;;;;7.20;72.50;;;;;;5011620;28;88571;-37
2023/03/16 01:18:52;;;;;;;;;;;7.20;72.40;;;;;;5020346;28;88033;-38
2023/03/16 01:21:20;;;;;;;;;;;7.20;72.40;;;;;;5017825;28;90311;-38
2023/03/16 01:23:46;;;;;;;;;;;7.20;72.40;;;;;;5020502;28;87640;-38
2023/03/16 01:26:11;;;;;;;;;;;7.10;72.40;;;;;;5020126;28;89557;-37
2023/03/16 01:28:37;;;;;;;;;;;7.10;72.40;;;;;;5018723;28;89980;-37
2023/03/16 01:31:05;;;;;;;;;;;7.10;72.30;;;;;;5009757;28;87132;-38
2023/03/16 01:33:30;;;;;;;;;;;7.10;72.50;;;;;;5011809;28;88986;-37
2023/03/16 01:35:57;;;;;;;;;;;7.10;72.40;;;;;;5006446;28;89203;-38
2023/03/16 01:38:23;;;;;;;;;;;7.10;72.40;;;;;;5003572;28;87180;-37
2023/03/16 01:40:50;;;;;;;;;;;7.10;72.40;;;;;;5012702;28;88297;-38
2023/03/16 01:43:17;;;;;;;;;;;7.10;72.40;;;;;;5018579;28;87210;-38
2023/03/16 01:46:01;;;;;;;;;;;7.10;72.30;;;;;;5002589;28;88342;-38
2023/03/16 01:48:27;;;;;;;;;;;7.10;72.30;;;;;;5016711;28;88914;-38
2023/03/16 01:50:52;;;;;;;;;;;7.10;72.30;;;;;;5015199;28;87754;-38
2023/03/16 01:53:20;;;;;;;;;;;7.00;72.20;;;;;;5016786;28;88940;-37
2023/03/16 01:55:47;;;;;;;;;;;7.00;72.30;;;;;;5020145;28;89298;-37
2023/03/16 01:58:13;;;;;;;;;;;7.00;72.20;;;;;;5019712;28;87207;-37
2023/03/16 02:00:40;;;;;;;;;;;7.00;72.30;;;;;;5013432;28;88034;-37
2023/03/16 02:03:08;;;;;;;;;;;7.00;72.20;;;;;;5007236;28;87233;-38
2023/03/16 02:05:44;;;;;;;;;;;7.00;72.20;;;;;;5015866;28;87929;-37
2023/03/16 02:08:11;;;;;;;;;;;7.00;72.20;;;;;;5019558;28;90458;-37
2023/03/16 02:10:37;;;;;;;;;;;6.90;72.30;;;;;;5015759;28;88234;-37
2023/03/16 02:13:03;;;;;;;;;;;6.90;72.20;;;;;;5002400;28;90035;-38
2023/03/16 02:15:28;;;;;;;;;;;6.90;72.10;;;;;;5002741;28;88060;-37
2023/03/16 02:17:56;;;;;;;;;;;6.90;72.20;;;;;;5002875;28;87904;-37
2023/03/16 02:20:32;;;;;;;;;;;6.90;72.50;;;;;;5002741;28;88977;-37
2023/03/16 02:22:57;;;;;;;;;;;6.90;72.30;;;;;;5020133;28;89138;-37
2023/03/16 02:25:28;;;;;;;;;;;6.90;72.10;;;;;;5019016;28;88308;-37
2023/03/16 02:27:53;;;;;;;;;;;6.90;72.20;;;;;;5020182;28;89019;-37
2023/03/16 02:30:20;;;;;;;;;;;6.90;72.20;;;;;;5018750;28;87939;-37
2023/03/16 02:32:46;;;;;;;;;;;6.90;72.20;;;;;;5017359;28;88871;-37
2023/03/16 02:35:12;;;;;;;;;;;6.80;72.80;;;;;;5001397;28;89708;-37
2023/03/16 02:37:38;;;;;;;;;;;6.90;72.20;;;;;;5002363;28;87168;-37
2023/03/16 02:40:20;;;;;;;;;;;6.80;72.20;;;;;;5002033;28;89248;-37
2023/03/16 02:42:46;;;;;;;;;;;6.80;72.30;;;;;;5015273;28;89464;-37
2023/03/16 02:45:12;;;;;;;;;;;6.80;72.20;;;;;;5019588;28;87892;-37
2023/03/16 02:47:41;;;;;;;;;;;6.80;72.20;;;;;;5017625;28;89543;-37
2023/03/16 02:50:07;;;;;;;;;;;6.80;72.30;;;;;;5017975;28;87183;-37
2023/03/16 02:52:33;;;;;;;;;;;6.80;72.30;;;;;;5016281;28;88940;-37
2023/03/16 02:54:59;;;;;;;;;;;6.80;72.20;;;;;;5015635;28;88879;-37
2023/03/16 02:57:24;;;;;;;;;;;6.80;72.20;;;;;;5018266;28;87147;-37
2023/03/16 02:59:50;;;;;;;;;;;6.80;72.10;;;;;;5020736;28;87828;-38
2023/03/16 03:02:16;;;;;;;;;;;6.80;72.30;;;;;;5020839;28;89126;-37
2023/03/16 03:04:44;;;;;;;;;;;6.80;72.20;;;;;;5023925;28;87105;-37
2023/03/16 03:07:11;;;;;;;;;;;6.80;72.30;;;;;;5008203;28;87769;-37
2023/03/16 03:09:36;;;;;;;;;;;6.80;72.20;;;;;;5021533;28;87232;-37
2023/03/16 03:12:02;;;;;;;;;;;6.80;72.20;;;;;;5012409;28;88292;-37
2023/03/16 03:14:28;;;;;;;;;;;6.70;72.20;;;;;;5004946;28;89708;-37
2023/03/16 03:16:53;;;;;;;;;;;6.70;72.30;;;;;;5005659;28;86978;-38
2023/03/16 03:19:19;;;;;;;;;;;6.70;72.30;;;;;;5013677;28;87961;-37
2023/03/16 03:21:44;;;;;;;;;;;6.70;72.20;;;;;;5015760;28;89528;-37
2023/03/16 03:24:10;;;;;;;;;;;6.70;72.20;;;;;;5004270;28;88693;-37
2023/03/16 03:26:36;;;;;;;;;;;6.70;72.20;;;;;;5005189;28;88325;-37
2023/03/16 03:29:03;;;;;;;;;;;6.70;72.20;;;;;;5007953;28;89182;-38
2023/03/16 03:31:28;;;;;;;;;;;6.70;72.30;;;;;;5004925;28;88484;-38
2023/03/16 03:33:54;;;;;;;;;;;6.70;72.30;;;;;;5004939;28;88231;-38
2023/03/16 03:36:21;;;;;;;;;;;6.70;72.20;;;;;;5013516;28;87695;-37
2023/03/16 03:38:48;;;;;;;;;;;6.60;72.20;;;;;;5021979;28;88607;-37
2023/03/16 03:41:14;;;;;;;;;;;6.60;72.10;;;;;;5017181;28;88720;-37
2023/03/16 03:43:40;;;;;;;;;;;6.60;72.20;;;;;;5008391;28;87880;-37
2023/03/16 03:46:06;;;;;;;;;;;6.60;72.20;;;;;;5004914;28;89075;-37
2023/03/16 03:48:32;;;;;;;;;;;6.60;72.20;;;;;;5003829;28;90328;-37
2023/03/16 03:50:58;;;;;;;;;;;6.60;72.20;;;;;;5014715;28;87090;-37
2023/03/16 03:53:23;;;;;;;;;;;6.60;72.20;;;;;;5017072;28;89300;-37
2023/03/16 03:55:49;;;;;;;;;;;6.60;72.30;;;;;;5011056;28;87111;-37
2023/03/16 03:58:15;;;;;;;;;;;6.60;72.20;;;;;;5005163;28;87841;-37
2023/03/16 04:00:40;;;;;;;;;;;6.60;72.10;;;;;;5019155;28;89437;-37
2023/03/16 04:03:06;;;;;;;;;;;6.50;72.10;;;;;;5005059;28;87228;-37
2023/03/16 04:05:31;;;;;;;;;;;6.50;72.10;;;;;;5007802;28;87429;-37
2023/03/16 04:07:57;;;;;;;;;;;6.50;72.00;;;;;;5004326;28;88944;-37
2023/03/16 04:10:23;;;;;;;;;;;6.50;72.00;;;;;;5009765;28;87036;-36
2023/03/16 04:12:49;;;;;;;;;;;6.50;72.20;;;;;;5018958;28;88580;-37
2023/03/16 04:15:14;;;;;;;;;;;6.50;72.10;;;;;;5015448;28;87383;-38
2023/03/16 04:17:40;;;;;;;;;;;6.50;72.10;;;;;;5019648;28;87440;-37
2023/03/16 04:20:12;;;;;;;;;;;6.50;72.20;;;;;;5017772;28;89398;-37
2023/03/16 04:22:37;;;;;;;;;;;6.50;72.00;;;;;;5018815;28;87886;-37
2023/03/16 04:25:04;;;;;;;;;;;6.50;72.00;;;;;;5017093;28;87720;-37
2023/03/16 04:27:35;;;;;;;;;;;6.50;71.90;;;;;;5017372;28;89586;-37
2023/03/16 04:30:04;;;;;;;;;;;6.40;71.90;;;;;;5017963;28;87189;-37
2023/03/16 04:32:30;;;;;;;;;;;6.40;72.00;;;;;;5019482;28;88323;-37
2023/03/16 04:34:56;;;;;;;;;;;6.40;72.00;;;;;;5008259;28;87724;-37
2023/03/16 04:37:21;;;;;;;;;;;6.40;72.00;;;;;;5019215;28;88743;-37
2023/03/16 04:39:47;;;;;;;;;;;6.40;71.90;;;;;;5019834;28;87637;-37
2023/03/16 04:42:12;;;;;;;;;;;6.40;72.00;;;;;;5019248;28;87763;-37
2023/03/16 04:44:43;;;;;;;;;;;6.40;72.10;;;;;;5008503;28;88338;-37
2023/03/16 04:47:12;;;;;;;;;;;6.40;72.00;;;;;;5020831;28;87853;-37
2023/03/16 04:49:38;;;;;;;;;;;6.40;72.00;;;;;;5009209;28;87663;-37
2023/03/16 04:52:04;;;;;;;;;;;6.40;71.90;;;;;;5003773;28;87915;-37
2023/03/16 04:54:29;;;;;;;;;;;6.40;72.00;;;;;;5007008;28;87896;-37
2023/03/16 04:56:55;;;;;;;;;;;6.40;72.00;;;;;;5003807;28;87980;-37
2023/03/16 04:59:21;;;;;;;;;;;6.40;72.50;;;;;;5003179;28;89362;-38
2023/03/16 05:01:47;;;;;;;;;;;6.40;71.90;;;;;;5002748;28;88321;-37
2023/03/16 05:04:13;;;;;;;;;;;6.30;71.90;;;;;;5011391;28;89842;-37
2023/03/16 05:06:38;;;;;;;;;;;6.40;72.00;;;;;;5003338;28;89962;-37
2023/03/16 05:09:06;;;;;;;;;;;6.30;72.00;;;;;;5020670;28;88003;-38
2023/03/16 05:11:32;;;;;;;;;;;6.30;72.00;;;;;;5018259;28;88705;-37
2023/03/16 05:13:57;;;;;;;;;;;6.30;72.00;;;;;;5018587;28;87682;-36
2023/03/16 05:16:23;;;;;;;;;;;6.30;71.90;;;;;;5019101;28;87115;-37
2023/03/16 05:18:49;;;;;;;;;;;6.40;72.00;;;;;;5003503;28;88180;-37
2023/03/16 05:21:15;;;;;;;;;;;6.30;72.00;;;;;;5003635;28;87167;-37
2023/03/16 05:23:40;;;;;;;;;;;6.30;71.80;;;;;;5002861;28;88790;-37
2023/03/16 05:26:06;;;;;;;;;;;6.30;72.00;;;;;;5007278;28;88873;-37
2023/03/16 05:28:32;;;;;;;;;;;6.30;72.00;;;;;;5018659;28;87698;-37
2023/03/16 05:30:57;;;;;;;;;;;6.30;72.00;;;;;;5006838;28;88786;-37
2023/03/16 05:33:23;;;;;;;;;;;6.30;71.90;;;;;;5003291;28;89852;-37
2023/03/16 05:35:49;;;;;;;;;;;6.30;71.90;;;;;;5003138;28;87700;-37
2023/03/16 05:38:15;;;;;;;;;;;6.30;71.90;;;;;;5005698;28;87825;-37
2023/03/16 05:40:41;;;;;;;;;;;6.30;71.90;;;;;;5008916;28;87239;-37
2023/03/16 05:43:06;;;;;;;;;;;6.30;71.90;;;;;;5020860;28;87333;-37
2023/03/16 05:45:32;;;;;;;;;;;6.20;71.90;;;;;;5010560;28;89324;-37
2023/03/16 05:47:58;;;;;;;;;;;6.20;72.00;;;;;;5009311;28;88044;-38
2023/03/16 05:50:23;;;;;;;;;;;6.20;71.90;;;;;;5011381;28;90736;-37
2023/03/16 05:52:49;;;;;;;;;;;6.20;71.80;;;;;;5019709;28;87817;-37
2023/03/16 05:55:15;;;;;;;;;;;6.20;71.90;;;;;;5002837;28;87149;-37
2023/03/16 05:57:41;;;;;;;;;;;6.20;72.00;;;;;;5012555;28;87704;-37
2023/03/16 06:00:13;;;;;;;;;;;6.20;71.80;;;;;;5020110;28;89475;-37
2023/03/16 06:02:39;;;;;;;;;;;6.20;71.90;;;;;;5019387;28;88143;-38
2023/03/16 06:05:06;;;;;;;;;;;6.20;71.70;;;;;;5018709;28;89711;-38
2023/03/16 06:07:31;;;;;;;;;;;6.20;71.80;;;;;;5013388;28;86364;-37
2023/03/16 06:09:57;;;;;;;;;;;6.10;71.60;;;;;;5019921;28;88195;-37
2023/03/16 06:12:22;;;;;;;;;;;6.20;71.80;;;;;;5010408;28;89267;-37
2023/03/16 06:14:48;;;;;;;;;;;6.20;71.70;;;;;;5020275;28;88171;-37
2023/03/16 06:17:13;;;;;;;;;;;6.20;71.80;;;;;;5018341;28;89813;-37
2023/03/16 06:19:39;;;;;;;;;;;6.20;71.80;;;;;;5018367;28;87966;-37
2023/03/16 06:22:04;;;;;;;;;;;6.20;71.70;;;;;;5005718;28;87011;-37
2023/03/16 06:24:30;;;;;;;;;;;6.20;71.60;;;;;;5002314;28;87854;-37
2023/03/16 06:26:55;;;;;;;;;;;6.10;71.60;;;;;;5001853;28;87209;-37
2023/03/16 06:29:21;;;;;;;;;;;6.20;71.70;;;;;;5017524;28;89078;-37
2023/03/16 06:31:46;;;;;;;;;;;6.20;71.70;;;;;;5008224;28;89029;-37
2023/03/16 06:34:12;;;;;;;;;;;6.10;71.60;;;;;;5002354;28;87730;-37
2023/03/16 06:36:38;;;;;;;;;;;6.10;71.50;;;;;;5017828;28;88689;-37
2023/03/16 06:39:04;;;;;;;;;;;6.10;71.60;;;;;;5019077;28;90212;-37
2023/03/16 06:41:30;;;;;;;;;;;6.20;71.50;;;;;;5015741;28;87152;-37
2023/03/16 06:43:56;;;;;;;;;;;6.10;71.40;;;;;;5005686;28;87990;-37
2023/03/16 06:46:21;;;;;;;;;;;6.10;71.50;;;;;;5005586;28;87769;-37
2023/03/16 06:48:47;;;;;;;;;;;6.10;71.50;;;;;;5022980;28;87334;-37
2023/03/16 06:51:12;;;;;;;;;;;6.10;71.60;;;;;;5022628;28;90344;-36
2023/03/16 06:53:38;;;;;;;;;;;6.10;71.60;;;;;;5022038;28;87716;-37
2023/03/16 06:56:03;;;;;;;;;;;6.10;71.60;;;;;;5019982;28;87325;-37
2023/03/16 06:58:30;;;;;;;;;;;6.00;71.40;;;;;;5019786;28;89115;-37
2023/03/16 07:00:55;;;;;;;;;;;6.00;71.50;;;;;;5022300;28;87169;-37
2023/03/16 07:03:21;;;;;;;;;;;6.00;71.40;;;;;;5015484;28;88831;-37
2023/03/16 07:05:46;;;;;;;;;;;6.00;71.40;;;;;;5005748;28;87691;-37
2023/03/16 07:08:13;;;;;;;;;;;6.00;71.40;;;;;;5021892;28;88830;-37
2023/03/16 07:10:39;;;;;;;;;;;6.00;71.40;;;;;;5020225;28;87203;-37
2023/03/16 07:13:05;;;;;;;;;;;6.00;71.40;;;;;;5022527;28;87125;-38
2023/03/16 07:15:30;;;;;;;;;;;6.00;71.50;;;;;;5022396;28;89193;-37
2023/03/16 07:17:56;;;;;;;;;;;6.00;71.40;;;;;;5019356;28;90131;-36
2023/03/16 07:20:21;;;;;;;;;;;6.00;71.40;;;;;;5022133;28;86435;-37
2023/03/16 07:22:47;;;;;;;;;;;6.00;71.50;;;;;;5021757;28;88302;-37
2023/03/16 07:25:13;;;;;;;;;;;6.00;71.50;;;;;;5023416;28;89473;-37
2023/03/16 07:27:40;;;;;;;;;;;5.90;71.60;;;;;;5017179;28;88706;-37
2023/03/16 07:30:06;;;;;;;;;;;6.00;71.50;;;;;;5020376;28;90200;-37
2023/03/16 07:32:31;;;;;;;;;;;5.90;71.50;;;;;;5019956;28;87117;-38
2023/03/16 07:34:57;;;;;;;;;;;6.00;71.40;;;;;;5021307;28;88751;-36
2023/03/16 07:37:23;;;;;;;;;;;5.90;71.50;;;;;;5009689;28;89678;-37
2023/03/16 07:39:50;;;;;;;;;;;5.90;71.30;;;;;;5011073;28;89116;-37
2023/03/16 07:42:16;;;;;;;;;;;5.90;71.40;;;;;;5009653;28;87370;-38
2023/03/16 07:44:42;;;;;;;;;;;5.90;71.70;;;;;;5019842;28;87283;-37
2023/03/16 07:47:10;;;;;;;;;;;5.90;71.50;;;;;;5019572;28;87111;-37
2023/03/16 07:49:36;;;;;;;;;;;5.90;71.50;;;;;;5009455;28;89033;-37
2023/03/16 07:52:02;;;;;;;;;;;5.90;72.20;;;;;;5013597;28;88123;-37
2023/03/16 07:54:27;;;;;;;;;;;5.90;71.40;;;;;;5018479;28;90078;-37
2023/03/16 07:56:53;;;;;;;;;;;6.00;71.40;;;;;;5019611;28;89611;-37
2023/03/16 07:59:19;;;;;;;;;;;5.90;72.10;;;;;;5019721;28;87696;-37
2023/03/16 08:01:45;;;;;;;;;;;5.90;71.50;;;;;;5019810;28;89936;-37
2023/03/16 08:04:11;;;;;;;;;;;5.90;71.50;;;;;;5003866;28;88144;-37
2023/03/16 08:06:37;;;;;;;;;;;5.90;71.50;;;;;;5003474;28;87331;-38
2023/03/16 08:09:02;;;;;;;;;;;5.90;71.50;;;;;;5013088;28;88739;-37
2023/03/16 08:11:28;;;;;;;;;;;5.90;71.60;;;;;;5003321;28;87217;-37
2023/03/16 08:13:55;;;;;;;;;;;5.90;71.50;;;;;;5003315;28;88472;-38
2023/03/16 08:16:23;;;;;;;;;;;5.90;71.50;;;;;;5014828;28;90440;-37
2023/03/16 08:18:50;;;;;;;;;;;5.90;71.40;;;;;;5007455;28;87198;-37
2023/03/16 08:21:16;;;;;;;;;;;5.90;71.50;;;;;;5019783;28;87226;-37
2023/03/16 08:23:49;;;;;;;;;;;5.90;71.50;;;;;;5020378;28;88651;-37
2023/03/16 08:26:21;;;;;;;;;;;5.90;71.30;;;;;;5020254;28;87847;-37
2023/03/16 08:28:50;;;;;;;;;;;5.90;71.30;;;;;;4971066;28;1287062;-37
2023/03/16 08:31:16;;;;;;;;;;;5.90;71.50;;;;;;5004245;28;87971;-37
2023/03/16 08:33:43;;;;;;;;;;;5.90;71.30;;;;;;5004698;28;88602;-36
2023/03/16 08:36:10;;;;;;;;;;;5.90;71.40;;;;;;5003522;28;89293;-37
2023/03/16 08:38:36;;;;;;;;;;;5.90;71.40;;;;;;5004086;28;87165;-37
2023/03/16 08:41:02;;;;;;;;;;;5.80;71.50;;;;;;5009347;28;88977;-37
2023/03/16 08:43:27;;;;;;;;;;;5.80;71.50;;;;;;5020195;28;89839;-37
2023/03/16 08:45:53;;;;;;;;;;;5.80;71.50;;;;;;5019412;28;87341;-37
2023/03/16 08:48:19;;;;;;;;;;;5.80;71.70;;;;;;5018651;28;89036;-37
2023/03/16 08:50:45;;;;;;;;;;;5.80;71.60;;;;;;5023059;28;88434;-37
2023/03/16 08:53:12;;;;;;;;;;;5.80;71.50;;;;;;5018841;28;87478;-37
2023/03/16 08:55:39;;;;;;;;;;;5.80;71.50;;;;;;5020324;28;89482;-37
2023/03/16 08:58:05;;;;;;;;;;;5.90;71.50;;;;;;5004529;28;86448;-37
2023/03/16 09:00:30;;;;;;;;;;;5.80;71.40;;;;;;5003754;28;87963;-37
2023/03/16 09:02:56;;;;;;;;;;;5.80;71.40;;;;;;5002992;28;89489;-37
2023/03/16 09:05:22;;;;;;;;;;;5.80;71.60;;;;;;5002602;28;88090;-37
2023/03/16 09:07:47;;;;;;;;;;;5.80;71.70;;;;;;5003130;28;90031;-37
2023/03/16 09:10:14;;;;;;;;;;;5.70;71.80;;;;;;5019831;28;87646;-37
2023/03/16 09:12:41;;;;;;;;;;;5.70;71.80;;;;;;5024654;28;87218;-37
2023/03/16 09:15:08;;;;;;;;;;;5.70;71.70;;;;;;5012904;28;89364;-37
2023/03/16 09:17:35;;;;;;;;;;;5.70;71.70;;;;;;5003399;28;87041;-37
2023/03/16 09:20:01;;;;;;;;;;;5.70;71.70;;;;;;5004685;28;87034;-37
2023/03/16 09:22:27;;;;;;;;;;;5.70;71.70;;;;;;5017979;28;88727;-38
2023/03/16 09:24:53;;;;;;;;;;;5.70;71.70;;;;;;5018337;28;87702;-37
2023/03/16 09:27:19;;;;;;;;;;;5.70;71.80;;;;;;5018390;28;87695;-37
2023/03/16 09:29:45;;;;;;;;;;;5.70;71.80;;;;;;5002601;28;91064;-36
2023/03/16 09:32:11;;;;;;;;;;;5.70;71.80;;;;;;5016808;28;87178;-37
2023/03/16 09:34:36;;;;;;;;;;;5.70;71.80;;;;;;5005465;28;88955;-37
2023/03/16 09:37:02;;;;;;;;;;;5.80;71.80;;;;;;5012945;28;87258;-37
2023/03/16 09:39:27;;;;;;;;;;;5.70;71.70;;;;;;5002994;28;89188;-37
2023/03/16 09:42:31;;;;;;;;;;;5.80;71.90;;;;;;5002665;28;89635;-37
2023/03/16 09:44:57;;;;;;;;;;;5.70;71.80;;;;;;4962540;28;87245;-37
2023/03/16 09:47:25;;;;;;;;;;;5.70;71.70;;;;;;4961457;28;88771;-37
2023/03/16 09:49:51;;;;;;;;;;;5.80;71.70;;;;;;4982320;28;89580;-37
2023/03/16 09:52:35;;;;;;;;;;;5.70;71.70;;;;;;5018667;28;87109;-37
2023/03/16 09:55:01;;;;;;;;;;;5.70;71.70;;;;;;5016864;28;88773;-37
2023/03/16 09:57:31;;;;;;;;;;;5.80;72.30;;;;;;5021759;28;87449;-37
2023/03/16 09:59:59;;;;;;;;;;;5.70;71.70;;;;;;5019438;28;89082;-37
2023/03/16 10:02:25;;;;;;;;;;;5.70;71.80;;;;;;5009660;28;89695;-37
2023/03/16 10:04:56;;;;;;;;;;;5.70;71.80;;;;;;5016290;28;87180;-37
2023/03/16 10:07:33;;;;;;;;;;;5.80;71.80;;;;;;5019492;28;88692;-37
2023/03/16 10:10:17;;;;;;;;;;;5.80;71.80;;;;;;5018052;28;89512;-37
2023/03/16 10:12:46;;;;;;;;;;;5.70;71.70;;;;;;5018568;28;86441;-37
2023/03/16 10:15:18;;;;;;;;;;;5.70;71.70;;;;;;5016366;28;88316;-38
2023/03/16 10:17:51;;;;;;;;;;;5.70;71.80;;;;;;5017811;28;89438;-37
2023/03/16 10:20:19;;;;;;;;;;;5.70;72.00;;;;;;5020986;28;88058;-37
2023/03/16 10:22:45;;;;;;;;;;;5.70;72.00;;;;;;5016733;28;88592;-37
2023/03/16 10:25:11;;;;;;;;;;;5.70;72.00;;;;;;5016178;28;87223;-37
2023/03/16 10:27:38;;;;;;;;;;;5.70;72.00;;;;;;5017501;28;88935;-37
2023/03/16 10:30:13;;;;;;;;;;;5.70;72.00;;;;;;5001900;28;89553;-37
2023/03/16 10:32:39;;;;;;;;;;;5.70;72.20;;;;;;5002598;28;87084;-37
2023/03/16 10:35:10;;;;;;;;;;;5.70;72.10;;;;;;5002388;28;87923;-37
2023/03/16 10:37:36;;;;;;;;;;;5.70;72.00;;;;;;5016435;28;88883;-37
2023/03/16 10:40:08;;;;;;;;;;;5.60;72.00;;;;;;5021779;28;87305;-37
2023/03/16 10:42:34;;;;;;;;;;;5.60;72.00;;;;;;5018663;28;89841;-37
2023/03/16 10:45:00;;;;;;;;;;;5.70;72.10;;;;;;5019350;28;88656;-37
2023/03/16 10:47:30;;;;;;;;;;;5.60;72.10;;;;;;5019039;28;89879;-37
2023/03/16 10:49:55;;;;;;;;;;;5.70;72.20;;;;;;5001772;28;88867;-37
2023/03/16 10:52:33;;;;;;;;;;;5.60;72.10;;;;;;5016792;28;87243;-37
2023/03/16 10:55:17;;;;;;;;;;;5.70;72.20;;;;;;5002210;28;88530;-37
2023/03/16 10:57:47;;;;;;;;;;;5.60;72.30;;;;;;5015225;28;89680;-37
2023/03/16 11:00:14;;;;;;;;;;;5.60;72.30;;;;;;5017308;28;87248;-37
2023/03/16 11:02:40;;;;;;;;;;;5.60;72.20;;;;;;5019830;28;88884;-37
2023/03/16 11:05:14;;;;;;;;;;;5.60;72.30;;;;;;5002966;28;87126;-37
2023/03/16 11:07:46;;;;;;;;;;;5.60;72.30;;;;;;5008257;28;87407;-37
2023/03/16 11:10:23;;;;;;;;;;;5.60;72.30;;;;;;5000961;28;90917;-37
2023/03/16 11:12:49;;;;;;;;;;;5.60;72.20;;;;;;5003363;28;87112;-37
2023/03/16 11:15:15;;;;;;;;;;;5.60;72.30;;;;;;5014403;28;88924;-37
2023/03/16 11:17:44;;;;;;;;;;;5.60;72.20;;;;;;5014138;28;89713;-37
2023/03/16 11:20:16;;;;;;;;;;;5.60;72.30;;;;;;5009346;28;87192;-37
2023/03/16 11:22:44;;;;;;;;;;;5.60;72.30;;;;;;5005508;28;87869;-38
2023/03/16 11:25:12;;;;;;;;;;;5.60;72.20;;;;;;5007727;28;89446;-37
2023/03/16 11:27:44;;;;;;;;;;;5.50;72.20;;;;;;5004991;28;88723;-37
2023/03/16 11:30:34;;;;;;;;;;;5.50;72.30;;;;;;5004650;28;89712;-37
2023/03/16 11:33:00;;;;;;;;;;;5.50;72.30;;;;;;5005334;28;87070;-37
2023/03/16 11:35:38;;;;;;;;;;;5.50;72.30;;;;;;5005310;28;89004;-37
2023/03/16 11:38:20;;;;;;;;;;;5.50;72.20;;;;;;5013976;28;89259;-37
2023/03/16 11:40:55;;;;;;;;;;;5.50;72.20;;;;;;5021567;28;87281;-37
2023/03/16 11:43:26;;;;;;;;;;;5.50;72.40;;;;;;5013538;28;89371;-37
2023/03/16 11:46:04;;;;;;;;;;;5.50;72.30;;;;;;5020834;28;89493;-37
2023/03/16 11:48:36;;;;;;;;;;;5.50;72.30;;;;;;5008334;28;87109;-37
2023/03/16 11:51:20;;;;;;;;;;;5.50;72.90;;;;;;5005069;28;89609;-37
2023/03/16 11:53:46;;;;;;;;;;;5.50;72.20;;;;;;5018667;28;86536;-37
2023/03/16 11:56:30;;;;;;;;;;;5.50;72.20;;;;;;5020959;28;87211;-37
2023/03/16 11:59:15;;;;;;;;;;;5.50;72.20;;;;;;5021984;28;90012;-37
2023/03/16 12:01:49;;;;;;;;;;;5.40;72.20;;;;;;5013123;28;87996;-37
2023/03/16 12:04:19;;;;;;;;;;;5.40;72.30;;;;;;5021827;28;88482;-37
2023/03/16 12:07:03;;;;;;;;;;;5.40;72.80;;;;;;5018076;28;89292;-37
2023/03/16 12:09:32;;;;;;;;;;;5.40;72.20;;;;;;5019329;28;87727;-37
2023/03/16 12:12:04;;;;;;;;;;;5.40;72.40;;;;;;5023936;28;87692;-37
2023/03/16 12:14:33;;;;;;;;;;;5.40;72.40;;;;;;5020122;28;87120;-37
2023/03/16 12:16:59;;;;;;;;;;;5.40;72.30;;;;;;5018705;28;88953;-37
2023/03/16 12:19:40;;;;;;;;;;;5.40;72.30;;;;;;5007003;28;88352;-37
2023/03/16 12:22:20;;;;;;;;;;;5.40;72.30;;;;;;5014227;28;87850;-37
2023/03/16 12:24:46;;;;;;;;;;;5.40;72.30;;;;;;5004355;28;88663;-38
2023/03/16 12:27:18;;;;;;;;;;;5.40;72.30;;;;;;5002817;28;90385;-37
2023/03/16 12:29:54;;;;;;;;;;;5.30;72.40;;;;;;5005294;28;87080;-37
2023/03/16 12:32:31;;;;;;;;;;;5.40;72.30;;;;;;5002837;28;88847;-37
2023/03/16 12:35:15;;;;;;;;;;;5.40;72.30;;;;;;5019902;28;89237;-37
2023/03/16 12:37:49;;;;;;;;;;;5.40;72.30;;;;;;5004559;28;87368;-37
2023/03/16 12:40:26;;;;;;;;;;;5.40;72.30;;;;;;5016479;28;90255;-37
2023/03/16 12:42:57;;;;;;;;;;;5.30;72.50;;;;;;5004215;28;87130;-37
2023/03/16 12:45:49;;;;;;;;;;;5.30;72.50;;;;;;5004557;28;88995;-37
2023/03/16 12:48:37;;;;;;;;;;;5.30;72.40;;;;;;5000776;28;90206;-37
2023/03/16 12:51:03;;;;;;;;;;;5.30;72.30;;;;;;5004037;28;87215;-37
2023/03/16 12:53:52;;;;;;;;;;;5.30;72.40;;;;;;5016397;28;90266;-37
2023/03/16 12:56:32;;;;;;;;;;;5.40;72.50;;;;;;5009564;28;87789;-38
2023/03/16 12:58:59;;;;;;;;;;;5.40;72.30;;;;;;5018152;28;89322;-37
2023/03/16 13:01:27;;;;;;;;;;;5.30;72.30;;;;;;5018328;28;88072;-37
2023/03/16 13:03:59;;;;;;;;;;;5.30;72.40;;;;;;5018828;28;87435;-37
2023/03/16 13:06:29;;;;;;;;;;;5.40;72.40;;;;;;5020043;28;89049;-37
2023/03/16 13:08:58;;;;;;;;;;;5.30;72.30;;;;;;5018109;28;89590;-38
2023/03/16 13:11:25;;;;;;;;;;;5.30;72.40;;;;;;5019931;28;86425;-37
2023/03/16 13:14:00;;;;;;;;;;;5.30;72.30;;;;;;5017730;28;87141;-37
2023/03/16 13:16:27;;;;;;;;;;;5.30;72.30;;;;;;5019935;28;90023;-37
2023/03/16 13:18:53;;;;;;;;;;;5.30;72.40;;;;;;5007708;28;88568;-37
2023/03/16 13:21:21;;;;;;;;;;;5.30;72.40;;;;;;5003208;28;89024;-37
2023/03/16 13:23:57;;;;;;;;;;;5.20;72.40;;;;;;5003395;28;87199;-37
2023/03/16 13:26:29;;;;;;;;;;;5.30;72.40;;;;;;5003727;28;89083;-37
2023/03/16 13:28:55;;;;;;;;;;;5.30;72.40;;;;;;5002897;28;89277;-37
2023/03/16 13:31:20;;;;;;;;;;;5.30;72.40;;;;;;5003501;28;87837;-37
2023/03/16 13:33:46;;;;;;;;;;;5.20;72.40;;;;;;5017039;28;88606;-37
2023/03/16 13:36:12;;;;;;;;;;;5.20;72.50;;;;;;5015774;28;88567;-37
2023/03/16 13:38:37;;;;;;;;;;;5.20;72.60;;;;;;5003066;28;87238;-37
2023/03/16 13:41:07;;;;;;;;;;;5.20;72.50;;;;;;5006214;28;88577;-37
2023/03/16 13:43:37;;;;;;;;;;;5.20;72.50;;;;;;5018216;28;88176;-37
2023/03/16 13:46:15;;;;;;;;;;;5.20;72.50;;;;;;5019680;28;88801;-38
2023/03/16 13:48:42;;;;;;;;;;;5.20;72.60;;;;;;5017447;28;89621;-37
2023/03/16 13:51:16;;;;;;;;;;;5.20;72.50;;;;;;5017011;28;87433;-37
2023/03/16 13:53:42;;;;;;;;;;;5.20;72.60;;;;;;5003346;28;89012;-37
2023/03/16 13:56:12;;;;;;;;;;;5.20;72.50;;;;;;5016116;28;90243;-37
2023/03/16 13:58:39;;;;;;;;;;;5.20;72.50;;;;;;5009595;28;87768;-37
2023/03/16 14:01:14;;;;;;;;;;;5.20;72.50;;;;;;5003133;28;87989;-37
2023/03/16 14:03:42;;;;;;;;;;;5.20;72.50;;;;;;5010663;28;88612;-37
2023/03/16 14:06:18;;;;;;;;;;;5.20;72.60;;;;;;5019637;28;88547;-37
2023/03/16 14:08:48;;;;;;;;;;;5.20;72.60;;;;;;5018216;28;90020;-37
2023/03/16 14:11:13;;;;;;;;;;;5.20;72.50;;;;;;5010222;28;87304;-38
2023/03/16 14:13:39;;;;;;;;;;;5.20;72.60;;;;;;5002645;28;88723;-37
2023/03/16 14:16:10;;;;;;;;;;;5.20;72.50;;;;;;5002693;28;87960;-37
2023/03/16 14:18:38;;;;;;;;;;;5.20;72.50;;;;;;5002918;28;87087;-37
2023/03/16 14:21:08;;;;;;;;;;;5.20;72.60;;;;;;5002779;28;88612;-37
2023/03/16 14:23:39;;;;;;;;;;;5.10;72.60;;;;;;5002047;28;89205;-37
2023/03/16 14:26:06;;;;;;;;;;;5.10;72.60;;;;;;5007424;28;86416;-37
2023/03/16 14:28:32;;;;;;;;;;;5.20;72.70;;;;;;5001720;28;89421;-37
2023/03/16 14:31:03;;;;;;;;;;;5.20;72.70;;;;;;5016616;28;87168;-37
2023/03/16 14:33:30;;;;;;;;;;;5.10;72.60;;;;;;5002753;28;89211;-37
2023/03/16 14:35:57;;;;;;;;;;;5.10;72.60;;;;;;5001995;28;89486;-38